Time;durP1;ratioP1;P1;durP2;ratioP2;P2;SDS_P1;SDS_P2;PMS_P1;PMS_P2;Temp;Humidity;BMP_temperature;BMP_pressure;BME280_temperature;BME280_humidity;BME280_pressure;Samples;Min_cycle;Max_cycle;Signal;HPM_P1;HPM_P2
2021/10/01 07:22:54;;;;;;;5.13;1.13;;;13.30;99.90;;;;;;5012614;28;20056;-88
2021/10/01 08:19:44;;;;;;;2.92;0.95;;;14.40;99.90;;;;;;5021848;28;20122;-91
2021/10/01 08:22:10;;;;;;;3.75;0.90;;;14.50;99.90;;;;;;5005104;28;20501;-89
2021/10/01 08:24:37;;;;;;;3.10;0.80;;;14.50;99.90;;;;;;5004265;28;20033;-91
2021/10/01 08:27:03;;;;;;;3.15;0.95;;;14.60;99.90;;;;;;5004062;28;20081;-90
2021/10/01 08:29:30;;;;;;;4.03;1.02;;;14.60;99.90;;;;;;5006230;28;20028;-91
2021/10/01 08:32:02;;;;;;;4.10;1.10;;;14.60;99.90;;;;;;5006823;28;20240;-91
2021/10/01 08:34:35;;;;;;;4.88;1.02;;;14.50;99.90;;;;;;5000949;28;20637;-89
2021/10/01 08:37:00;;;;;;;5.07;1.00;;;14.40;99.90;;;;;;4986032;28;20029;-89
2021/10/01 08:39:27;;;;;;;5.75;0.93;;;14.20;99.90;;;;;;4991590;28;20029;-88
2021/10/01 08:41:54;;;;;;;6.03;1.40;;;13.90;99.90;;;;;;4990646;28;20025;-90
2021/10/01 08:44:20;;;;;;;4.72;1.35;;;13.60;99.90;;;;;;4992576;28;20030;-90
2021/10/01 08:46:49;;;;;;;2.40;0.77;;;13.40;99.90;;;;;;5001436;28;20033;-89
2021/10/01 08:54:41;;;;;;;4.00;0.95;;;13.40;99.90;;;;;;4951343;28;19937;-88
2021/10/01 08:57:15;;;;;;;4.95;1.10;;;13.50;99.90;;;;;;4984306;28;20059;-88
2021/10/01 08:59:41;;;;;;;3.78;0.90;;;13.60;99.90;;;;;;4955585;29;20027;-88
2021/10/01 09:02:07;;;;;;;4.15;1.13;;;13.80;99.90;;;;;;4955889;29;20082;-88
2021/10/01 09:04:32;;;;;;;4.85;1.05;;;14.00;99.90;;;;;;4955745;29;20019;-88
2021/10/01 09:06:59;;;;;;;5.55;1.20;;;14.30;99.90;;;;;;4955276;28;20118;-88
2021/10/01 09:09:46;;;;;;;5.40;1.10;;;14.40;99.90;;;;;;4975883;28;20110;-88
2021/10/01 09:12:15;;;;;;;3.05;1.17;;;14.60;99.90;;;;;;4976107;28;20019;-89
2021/10/01 09:15:09;;;;;;;4.18;1.38;;;14.70;99.90;;;;;;4972744;28;20467;-88
2021/10/01 09:17:38;;;;;;;3.67;1.27;;;14.80;99.90;;;;;;4968376;28;20105;-88
2021/10/01 09:20:04;;;;;;;4.28;0.77;;;14.90;99.90;;;;;;4970076;28;20466;-88
2021/10/01 09:22:34;;;;;;;5.32;1.40;;;14.90;99.90;;;;;;4974585;28;20110;-88
2021/10/01 09:25:09;;;;;;;3.83;1.10;;;14.80;99.90;;;;;;4973987;28;20019;-88
2021/10/01 09:27:41;;;;;;;5.82;1.33;;;14.60;99.90;;;;;;4976854;28;20030;-87
2021/10/01 09:30:08;;;;;;;11.05;1.30;;;14.40;99.90;;;;;;4973674;28;20180;-85
2021/10/01 09:32:33;;;;;;;8.45;1.60;;;14.00;99.90;;;;;;4974315;28;20027;-87
2021/10/01 09:35:15;;;;;;;4.15;1.00;;;13.70;99.90;;;;;;4992101;28;20019;-86
2021/10/01 09:37:41;;;;;;;4.00;1.40;;;13.60;99.90;;;;;;4967013;28;20019;-86
2021/10/01 09:40:08;;;;;;;2.88;1.05;;;13.50;99.90;;;;;;4957782;28;20030;-85
2021/10/01 09:42:56;;;;;;;3.72;0.95;;;13.50;99.90;;;;;;4956160;29;20026;-85
2021/10/01 09:45:25;;;;;;;4.97;0.88;;;13.60;99.90;;;;;;4941972;28;20090;-88
2021/10/01 09:47:51;;;;;;;3.67;1.00;;;13.60;99.90;;;;;;4974251;28;20039;-86
2021/10/01 09:50:25;;;;;;;4.38;1.20;;;13.70;99.90;;;;;;4975365;28;20023;-86
2021/10/01 09:52:57;;;;;;;4.85;1.17;;;13.70;99.90;;;;;;4974569;28;20039;-86
2021/10/01 09:55:33;;;;;;;5.70;1.20;;;13.80;99.90;;;;;;4974876;28;20081;-85
2021/10/01 09:58:23;;;;;;;3.22;1.08;;;13.80;99.90;;;;;;4975408;28;20029;-86
2021/10/01 10:00:54;;;;;;;3.33;1.02;;;13.90;99.90;;;;;;4974999;28;20030;-85
2021/10/01 10:03:23;;;;;;;4.30;1.17;;;13.90;99.90;;;;;;4975573;28;20023;-85
2021/10/01 10:06:07;;;;;;;2.28;1.00;;;13.90;99.90;;;;;;4974974;28;20077;-84
2021/10/01 10:08:35;;;;;;;4.38;1.35;;;13.90;99.90;;;;;;4959676;28;20031;-84
2021/10/01 10:11:13;;;;;;;4.82;1.23;;;14.10;99.90;;;;;;4955580;29;20479;-84
2021/10/01 10:13:49;;;;;;;2.95;0.80;;;14.30;99.90;;;;;;4955730;29;20126;-85
2021/10/01 10:16:17;;;;;;;4.47;1.27;;;14.40;99.90;;;;;;4955852;29;20101;-86
2021/10/01 10:18:52;;;;;;;4.30;1.15;;;14.80;99.90;;;;;;4955467;29;20102;-86
2021/10/01 10:21:18;;;;;;;2.70;0.95;;;14.80;99.90;;;;;;4955271;29;20408;-85
2021/10/01 10:23:45;;;;;;;6.28;1.50;;;14.90;99.90;;;;;;4939160;29;20095;-85
2021/10/01 10:26:11;;;;;;;4.18;1.27;;;15.10;99.90;;;;;;4955502;29;20126;-86
2021/10/01 10:28:42;;;;;;;4.95;1.50;;;15.90;99.90;;;;;;4955266;28;20110;-86
2021/10/01 10:31:09;;;;;;;7.00;1.27;;;17.30;99.90;;;;;;4956816;28;20027;-86
2021/10/01 10:33:43;;;;;;;4.13;1.15;;;18.40;99.90;;;;;;4955466;29;20026;-86
2021/10/01 10:36:26;;;;;;;6.85;1.20;;;19.20;99.90;;;;;;4955895;29;20114;-86
2021/10/01 10:39:19;;;;;;;5.22;1.40;;;19.40;99.90;;;;;;4975065;28;20049;-85
2021/10/01 10:42:07;;;;;;;4.97;1.50;;;19.10;99.90;;;;;;4974603;28;20041;-86
2021/10/01 10:44:43;;;;;;;5.68;1.38;;;18.40;99.90;;;;;;4973105;28;20353;-85
2021/10/01 10:47:10;;;;;;;5.35;1.02;;;18.40;99.90;;;;;;4972872;28;20374;-85
2021/10/01 10:49:37;;;;;;;3.45;1.00;;;18.40;99.90;;;;;;4969792;28;20471;-87
2021/10/01 10:52:17;;;;;;;5.20;1.17;;;18.20;99.90;;;;;;4972942;28;20034;-86
2021/10/01 10:54:54;;;;;;;3.50;0.95;;;17.90;99.90;;;;;;4968767;28;20046;-87
2021/10/01 10:57:23;;;;;;;4.82;1.10;;;18.00;99.90;;;;;;4957132;28;20034;-86
2021/10/01 11:00:02;;;;;;;3.45;0.90;;;18.00;99.90;;;;;;4957181;28;20037;-89
2021/10/01 11:02:35;;;;;;;3.08;0.90;;;18.00;99.90;;;;;;4957285;28;20046;-87
2021/10/01 11:05:19;;;;;;;;;;;18.00;99.90;;;;;;4957614;28;20027;-87
2021/10/01 11:07:56;;;;;;;5.20;0.88;;;17.70;99.90;;;;;;4974511;28;19918;-87
2021/10/01 11:10:41;;;;;;;2.22;0.70;;;17.70;99.90;;;;;;4956839;28;20039;-88
2021/10/01 11:13:22;;;;;;;5.80;1.13;;;17.70;99.90;;;;;;4957159;28;20019;-87
2021/10/01 11:16:11;;;;;;;5.85;1.13;;;17.70;99.90;;;;;;4949517;29;20099;-87
2021/10/01 11:18:46;;;;;;;3.58;1.10;;;17.50;99.90;;;;;;4946862;28;20036;-89
2021/10/01 11:21:37;;;;;;;4.28;1.20;;;17.40;99.90;;;;;;4976977;28;20122;-88
2021/10/01 11:24:14;;;;;;;3.72;1.10;;;17.30;99.90;;;;;;4978505;28;20704;-88
2021/10/01 11:26:40;;;;;;;4.20;1.20;;;17.20;99.90;;;;;;4951518;28;20053;-89
2021/10/01 11:29:32;;;;;;;4.20;1.00;;;17.30;99.90;;;;;;4974392;28;20387;-89
2021/10/01 11:32:09;;;;;;;3.15;0.82;;;17.30;99.90;;;;;;4956435;28;20025;-88
2021/10/01 11:34:43;;;;;;;4.72;1.17;;;17.50;99.90;;;;;;4956100;28;20033;-90
2021/10/01 11:37:30;;;;;;;4.68;0.90;;;17.80;99.90;;;;;;4951807;29;20031;-89
2021/10/01 11:39:59;;;;;;;3.95;0.90;;;17.80;99.90;;;;;;4937278;29;20034;-89
2021/10/01 11:42:28;;;;;;;5.22;1.10;;;17.60;99.90;;;;;;4937474;29;20081;-89
2021/10/01 11:45:05;;;;;;;3.78;1.20;;;17.20;99.90;;;;;;4937375;29;20025;-88
2021/10/01 11:47:32;;;;;;;4.53;1.13;;;16.50;99.90;;;;;;4937466;29;20023;-88
2021/10/01 11:50:00;;;;;;;4.53;1.08;;;16.00;99.90;;;;;;4950005;28;20038;-90
2021/10/01 11:52:28;;;;;;;3.35;1.27;;;15.80;99.90;;;;;;4973616;28;20022;-88
2021/10/01 11:55:03;;;;;;;3.53;1.05;;;15.80;99.90;;;;;;4973141;28;20038;-89
2021/10/01 11:57:43;;;;;;;4.68;1.13;;;15.80;99.90;;;;;;4994921;28;20018;-89
2021/10/01 12:00:11;;;;;;;5.43;1.30;;;15.90;99.90;;;;;;4995158;28;20022;-87
2021/10/01 12:02:57;;;;;;;2.88;0.88;;;16.00;99.90;;;;;;4994546;28;20026;-86
2021/10/01 12:05:41;;;;;;;6.18;1.27;;;16.00;99.90;;;;;;4995172;28;20068;-87
2021/10/01 12:08:39;;;;;;;1.85;0.60;;;16.20;99.90;;;;;;4994579;28;20030;-88
2021/10/01 12:11:05;;;;;;;4.63;1.00;;;16.30;99.90;;;;;;4993304;28;20028;-88
2021/10/01 12:13:33;;;;;;;4.13;1.00;;;16.40;99.90;;;;;;4976343;28;20112;-88
2021/10/01 12:16:12;;;;;;;4.03;1.23;;;16.60;99.90;;;;;;4992579;28;20029;-87
2021/10/01 12:18:44;;;;;;;4.43;1.38;;;16.70;99.90;;;;;;4966403;28;20038;-88
2021/10/01 12:21:19;;;;;;;3.97;0.90;;;16.90;99.90;;;;;;4974935;28;20015;-88
2021/10/01 12:24:00;;;;;;;5.53;1.23;;;17.00;99.90;;;;;;4974963;28;20507;-88
2021/10/01 12:26:38;;;;;;;4.18;1.58;;;17.20;99.90;;;;;;4974181;28;20454;-89
2021/10/01 12:29:07;;;;;;;2.20;1.10;;;17.30;99.90;;;;;;4956246;28;20486;-88
2021/10/01 12:32:04;;;;;;;3.85;1.00;;;17.30;99.90;;;;;;4956752;28;20041;-89
2021/10/01 12:34:33;;;;;;;4.75;1.17;;;17.30;99.90;;;;;;4952048;28;20042;-86
2021/10/01 12:37:06;;;;;;;3.78;0.82;;;17.30;99.90;;;;;;4965287;28;20470;-88
2021/10/01 12:39:35;;;;;;;4.75;1.30;;;17.20;99.90;;;;;;4966766;28;20402;-89
2021/10/01 12:42:02;;;;;;;4.47;1.00;;;17.20;99.90;;;;;;4967296;28;20034;-89
2021/10/01 12:44:28;;;;;;;7.28;1.35;;;17.20;99.90;;;;;;4980876;28;20018;-89
2021/10/01 12:46:59;;;;;;;4.55;1.10;;;17.30;99.90;;;;;;4966544;28;20086;-88
2021/10/01 12:49:40;;;;;;;2.33;0.70;;;17.40;99.90;;;;;;4968196;28;20034;-89
2021/10/01 12:52:10;;;;;;;4.88;1.30;;;17.40;99.90;;;;;;4970951;28;20123;-87
2021/10/01 12:55:06;;;;;;;;;;;;;;;;;;;;;
2021/10/01 12:57:38;;;;;;;3.35;1.05;;;17.60;99.90;;;;;;4965487;28;20552;-89
2021/10/01 13:00:03;;;;;;;4.43;1.05;;;17.80;99.90;;;;;;4958484;28;20026;-87
2021/10/01 13:02:39;;;;;;;6.18;1.25;;;17.90;99.90;;;;;;4958899;28;20023;-90
2021/10/01 13:05:17;;;;;;;2.65;0.90;;;18.00;99.90;;;;;;4974140;28;20418;-88
2021/10/01 13:07:46;;;;;;;4.20;0.90;;;18.10;99.90;;;;;;4958112;28;20406;-89
2021/10/01 13:10:15;;;;;;;3.88;1.13;;;18.20;99.90;;;;;;4955056;28;20039;-88
2021/10/01 13:13:02;;;;;;;3.47;0.60;;;18.20;99.90;;;;;;4958316;28;20419;-89
2021/10/01 13:15:55;;;;;;;5.05;0.82;;;18.10;99.90;;;;;;4952486;28;20066;-89
2021/10/01 13:18:35;;;;;;;6.95;1.02;;;18.10;99.90;;;;;;4958229;28;20058;-89
2021/10/01 13:21:27;;;;;;;2.47;0.82;;;18.00;99.90;;;;;;4959824;28;20022;-90
2021/10/01 13:24:33;;;;;;;2.80;0.73;;;18.00;99.90;;;;;;4969983;28;20015;-90
2021/10/01 13:27:07;;;;;;;2.90;0.90;;;17.90;99.90;;;;;;4956038;28;20030;-90
2021/10/01 13:29:33;;;;;;;3.72;0.82;;;17.80;99.90;;;;;;4958759;28;20031;-90
2021/10/01 13:32:01;;;;;;;6.75;1.02;;;17.80;99.90;;;;;;4958745;28;20019;-89
2021/10/01 13:34:28;;;;;;;5.32;1.08;;;17.80;99.90;;;;;;4958528;28;20019;-90
2021/10/01 13:36:55;;;;;;;4.43;1.00;;;17.70;99.90;;;;;;4958309;28;20027;-90
2021/10/01 13:39:27;;;;;;;3.00;1.02;;;17.70;99.90;;;;;;4958288;28;20019;-88
2021/10/01 13:42:10;;;;;;;3.35;1.00;;;17.70;99.90;;;;;;4958781;28;20460;-91
2021/10/01 13:44:50;;;;;;;6.10;0.90;;;17.70;99.90;;;;;;4958308;28;20039;-90
2021/10/01 13:47:19;;;;;;;1.33;0.60;;;17.80;99.90;;;;;;4957586;28;20050;-90
2021/10/01 13:49:45;;;;;;;4.97;1.25;;;17.80;99.90;;;;;;4943179;28;20110;-90
2021/10/01 13:52:12;;;;;;;7.13;0.88;;;17.90;99.90;;;;;;4973684;28;20691;-91
2021/10/01 13:54:38;;;;;;;4.15;0.90;;;18.00;99.90;;;;;;4966316;28;20125;-89
2021/10/01 13:57:08;;;;;;;4.70;1.02;;;18.00;99.90;;;;;;4998287;28;20021;-90
2021/10/01 13:59:49;;;;;;;3.67;0.80;;;18.10;99.90;;;;;;4983944;28;20017;-91
2021/10/01 14:02:15;;;;;;;6.20;1.13;;;18.20;99.90;;;;;;4977462;28;20026;-89
2021/10/01 14:04:42;;;;;;;2.97;0.75;;;18.20;99.90;;;;;;4985754;28;20028;-89
2021/10/01 14:07:08;;;;;;;3.45;0.70;;;18.10;99.90;;;;;;4989463;28;20032;-91
2021/10/01 14:09:40;;;;;;;3.75;0.93;;;18.10;99.90;;;;;;4996754;28;20017;-89
2021/10/01 14:12:14;;;;;;;2.90;0.90;;;18.10;99.90;;;;;;4988183;28;20022;-89
2021/10/01 14:14:50;;;;;;;2.53;0.80;;;18.00;99.90;;;;;;4978284;28;20029;-89
2021/10/01 14:17:17;;;;;;;3.55;0.85;;;17.90;99.90;;;;;;4978057;28;20022;-92
2021/10/01 14:19:47;;;;;;;2.90;0.68;;;17.90;99.90;;;;;;4977978;28;20500;-90
2021/10/01 14:22:26;;;;;;;3.00;1.15;;;17.90;99.90;;;;;;4976474;28;20030;-90
2021/10/01 14:24:56;;;;;;;5.40;1.05;;;17.90;99.90;;;;;;4977107;28;20109;-90
2021/10/01 14:27:24;;;;;;;2.50;0.88;;;17.90;99.90;;;;;;4993780;28;20560;-90
2021/10/01 14:29:54;;;;;;;3.08;1.00;;;17.90;99.90;;;;;;4977556;28;20102;-90
2021/10/01 14:32:33;;;;;;;4.47;1.10;;;18.00;99.90;;;;;;4975943;28;20117;-90
2021/10/01 14:35:05;;;;;;;5.43;0.82;;;18.10;99.90;;;;;;4959758;28;20026;-90
2021/10/01 14:37:36;;;;;;;6.45;0.90;;;18.10;99.90;;;;;;4970940;28;20034;-91
2021/10/01 14:40:07;;;;;;;4.05;0.90;;;18.10;99.90;;;;;;4977732;28;20046;-91
2021/10/01 14:42:35;;;;;;;4.40;1.00;;;18.10;99.90;;;;;;4985856;28;20054;-91
2021/10/01 14:45:05;;;;;;;4.57;1.23;;;18.20;99.90;;;;;;4973400;28;20037;-91
2021/10/01 14:47:35;;;;;;;2.60;0.70;;;18.10;99.90;;;;;;4987058;28;20533;-91
2021/10/01 14:50:13;;;;;;;3.35;0.95;;;18.00;99.90;;;;;;4977189;28;20022;-92
2021/10/01 14:52:42;;;;;;;6.88;1.00;;;17.90;99.90;;;;;;4973714;28;20027;-91
2021/10/01 14:55:18;;;;;;;5.18;1.08;;;17.80;99.90;;;;;;4957519;28;20110;-91
2021/10/01 14:58:08;;;;;;;4.85;1.10;;;17.70;99.90;;;;;;4988379;28;20089;-90
2021/10/01 15:00:35;;;;;;;3.15;0.73;;;17.70;99.90;;;;;;4972590;28;20026;-90
2021/10/01 15:03:18;;;;;;;5.72;1.30;;;17.50;99.90;;;;;;4972417;28;20037;-91
2021/10/01 15:05:55;;;;;;;4.65;1.00;;;17.40;99.90;;;;;;4973864;28;20030;-90
2021/10/01 15:08:23;;;;;;;6.72;1.02;;;17.40;99.90;;;;;;4971716;28;20121;-90
2021/10/01 15:10:52;;;;;;;2.65;0.80;;;17.40;99.90;;;;;;4989892;28;20023;-90
2021/10/01 15:13:19;;;;;;;3.15;0.98;;;17.40;99.90;;;;;;4966334;28;20038;-90
2021/10/01 15:15:51;;;;;;;3.20;1.00;;;17.40;99.90;;;;;;4972271;28;20022;-89
2021/10/01 15:18:18;;;;;;;3.87;0.80;;;17.50;99.90;;;;;;4987974;28;20116;-89
2021/10/01 15:20:51;;;;;;;4.32;1.27;;;17.50;99.90;;;;;;4979613;28;20030;-90
2021/10/01 15:23:18;;;;;;;3.58;1.08;;;17.60;99.90;;;;;;4973619;28;20050;-90
2021/10/01 15:25:59;;;;;;;4.03;1.00;;;17.50;99.90;;;;;;4967984;28;20648;-90
2021/10/01 15:28:26;;;;;;;3.08;1.00;;;17.50;99.90;;;;;;4977487;28;20077;-91
2021/10/01 15:31:08;;;;;;;5.03;0.90;;;17.50;99.90;;;;;;4973697;28;20019;-90
2021/10/01 15:33:38;;;;;;;3.70;1.10;;;17.50;99.90;;;;;;4967967;28;20042;-92
2021/10/01 15:36:24;;;;;;;3.95;1.10;;;17.40;99.90;;;;;;4982653;28;20475;-90
2021/10/01 15:38:56;;;;;;;3.30;0.90;;;17.40;99.90;;;;;;4972272;28;20026;-90
2021/10/01 15:41:25;;;;;;;3.25;1.00;;;17.30;99.90;;;;;;4952789;28;20023;-91
2021/10/01 15:43:55;;;;;;;5.65;1.45;;;17.30;99.90;;;;;;4960627;28;20664;-90
2021/10/01 15:46:42;;;;;;;5.93;1.10;;;17.30;99.90;;;;;;4972532;28;20023;-90
2021/10/01 15:49:19;;;;;;;5.82;1.17;;;17.20;99.90;;;;;;4972553;28;20033;-91
2021/10/01 15:51:49;;;;;;;3.08;0.88;;;17.20;99.90;;;;;;4973268;28;20462;-92
2021/10/01 15:54:19;;;;;;;3.95;0.90;;;17.20;99.90;;;;;;4973929;28;20030;-91
2021/10/01 15:56:51;;;;;;;4.20;1.27;;;17.20;99.90;;;;;;4954407;28;20587;-90
2021/10/01 15:59:18;;;;;;;2.97;0.87;;;17.10;99.90;;;;;;4969453;28;20478;-90
2021/10/01 16:01:44;;;;;;;4.75;1.00;;;17.10;99.90;;;;;;4970144;28;20031;-91
2021/10/01 16:04:10;;;;;;;4.90;1.08;;;17.10;99.90;;;;;;4970435;28;20398;-92
2021/10/01 16:06:40;;;;;;;3.58;0.75;;;17.10;99.90;;;;;;4970484;28;20030;-91
2021/10/01 16:09:20;;;;;;;4.68;1.17;;;17.00;99.90;;;;;;4971245;28;20050;-90
2021/10/01 16:11:47;;;;;;;2.28;0.82;;;16.90;99.90;;;;;;4969505;28;20074;-90
2021/10/01 16:14:20;;;;;;;3.90;0.90;;;16.60;99.90;;;;;;4970114;28;20033;-91
2021/10/01 16:16:47;;;;;;;2.03;0.90;;;16.30;99.90;;;;;;4970870;28;20031;-90
2021/10/01 16:19:15;;;;;;;2.33;1.00;;;16.10;99.90;;;;;;4970459;28;20015;-89
2021/10/01 16:21:48;;;;;;;2.72;0.60;;;15.90;99.90;;;;;;4971383;28;20090;-89
2021/10/01 16:24:17;;;;;;;2.37;0.70;;;15.80;99.90;;;;;;4968580;28;20047;-88
2021/10/01 16:26:44;;;;;;;2.20;0.80;;;15.80;99.90;;;;;;4972563;28;20153;-88
2021/10/01 16:29:14;;;;;;;3.75;0.90;;;15.70;99.90;;;;;;4974613;28;20053;-88
2021/10/01 16:31:41;;;;;;;1.88;0.73;;;15.70;99.90;;;;;;4962624;28;20027;-88
2021/10/01 16:34:08;;;;;;;3.00;0.70;;;15.70;99.90;;;;;;4969943;28;20015;-89
2021/10/01 16:36:40;;;;;;;2.22;0.85;;;15.70;99.90;;;;;;4973108;28;20081;-89
2021/10/01 16:39:24;;;;;;;1.48;0.55;;;15.80;99.90;;;;;;4977013;28;20022;-89
2021/10/01 16:41:50;;;;;;;4.10;1.05;;;15.90;99.90;;;;;;4973107;28;20027;-87
2021/10/01 16:44:20;;;;;;;2.38;1.00;;;15.90;99.90;;;;;;4967839;28;20038;-89
2021/10/01 16:46:50;;;;;;;2.53;1.00;;;16.00;99.90;;;;;;4973028;28;20054;-89
2021/10/01 16:49:17;;;;;;;2.63;0.80;;;16.00;99.90;;;;;;4982005;28;20755;-89
2021/10/01 16:51:48;;;;;;;5.43;1.08;;;16.00;99.90;;;;;;4974249;28;20113;-89
2021/10/01 16:54:21;;;;;;;3.97;1.00;;;16.00;99.90;;;;;;4975863;28;20031;-90
2021/10/01 16:56:56;;;;;;;3.13;1.02;;;16.00;99.90;;;;;;4987493;28;20176;-89
2021/10/01 16:59:23;;;;;;;4.78;1.00;;;15.80;99.90;;;;;;4974634;28;20029;-89
2021/10/01 17:01:49;;;;;;;3.70;1.00;;;15.60;99.90;;;;;;4986156;28;20022;-89
2021/10/01 17:04:16;;;;;;;4.10;0.80;;;15.60;99.90;;;;;;4979602;28;20041;-89
2021/10/01 17:06:43;;;;;;;5.32;0.90;;;15.50;99.90;;;;;;4976099;28;20101;-89
2021/10/01 17:09:10;;;;;;;2.20;0.75;;;15.60;99.90;;;;;;4983795;28;20028;-88
2021/10/01 17:11:37;;;;;;;2.63;1.30;;;15.60;99.90;;;;;;4972701;28;20052;-88
2021/10/01 17:14:03;;;;;;;2.90;0.80;;;15.40;99.90;;;;;;4971434;28;20019;-88
2021/10/01 17:16:36;;;;;;;4.50;0.98;;;15.40;99.90;;;;;;4978996;28;20163;-89
2021/10/01 17:19:04;;;;;;;4.15;0.90;;;15.30;99.90;;;;;;4996944;28;20084;-89
2021/10/01 17:21:42;;;;;;;2.35;0.70;;;15.20;99.90;;;;;;4972601;28;20018;-90
2021/10/01 17:24:14;;;;;;;1.70;0.75;;;15.20;99.90;;;;;;4973939;28;20031;-90
2021/10/01 17:27:03;;;;;;;3.13;0.85;;;15.00;99.90;;;;;;4978363;28;20123;-89
2021/10/01 17:29:30;;;;;;;4.05;1.20;;;14.90;99.90;;;;;;4978613;28;20032;-87
2021/10/01 17:31:56;;;;;;;4.88;1.80;;;14.60;99.90;;;;;;4964595;28;20038;-86
2021/10/01 17:34:22;;;;;;;4.75;0.90;;;14.30;99.90;;;;;;4977387;28;20492;-86
2021/10/01 17:36:50;;;;;;;4.07;0.90;;;14.10;99.90;;;;;;4997927;28;20058;-85
2021/10/01 17:39:22;;;;;;;5.28;1.33;;;13.90;99.90;;;;;;4981747;28;20194;-86
2021/10/01 17:41:49;;;;;;;4.13;1.35;;;13.80;99.90;;;;;;4981127;28;20142;-86
2021/10/01 17:44:15;;;;;;;1.58;0.90;;;13.70;99.90;;;;;;4966227;28;20281;-85
2021/10/01 17:46:41;;;;;;;4.03;1.33;;;13.60;99.90;;;;;;4976767;28;20118;-86
2021/10/01 17:49:07;;;;;;;4.57;1.00;;;13.60;99.90;;;;;;4974179;28;20645;-86
2021/10/01 17:51:34;;;;;;;3.08;1.20;;;13.50;99.90;;;;;;4973171;28;20104;-87
2021/10/01 17:54:00;;;;;;;4.05;1.10;;;13.50;99.90;;;;;;4990171;28;20046;-87
2021/10/01 17:56:26;;;;;;;4.60;1.58;;;13.40;99.90;;;;;;4972908;28;20482;-87
2021/10/01 17:58:52;;;;;;;4.28;1.33;;;13.40;99.90;;;;;;4971861;28;20118;-86
2021/10/01 18:01:43;;;;;;;4.57;1.70;;;13.40;99.90;;;;;;4971294;28;20439;-88
2021/10/01 18:04:11;;;;;;;3.97;1.52;;;13.40;99.90;;;;;;4985336;28;20037;-87
2021/10/01 18:07:32;;;;;;;5.18;1.63;;;13.30;99.90;;;;;;4978128;28;20057;-87
2021/10/01 18:10:03;;;;;;;5.38;1.83;;;13.30;99.90;;;;;;4971503;28;20033;-88
2021/10/01 18:13:12;;;;;;;5.18;1.83;;;13.30;99.90;;;;;;4980168;28;20026;-89
2021/10/01 18:15:41;;;;;;;2.70;1.30;;;13.20;99.90;;;;;;4996649;28;20077;-88
2021/10/01 18:21:54;;;;;;;5.30;1.90;;;13.30;99.90;;;;;;4996860;28;20041;-88
2021/10/01 18:24:38;;;;;;;4.97;2.00;;;13.30;99.90;;;;;;4994240;28;20054;-87
2021/10/01 18:27:08;;;;;;;4.53;1.73;;;13.20;99.90;;;;;;4976429;28;20069;-87
2021/10/01 18:30:24;;;;;;;6.40;2.13;;;13.20;99.90;;;;;;4976533;28;20065;-88
2021/10/01 18:36:33;;;;;;;3.83;1.80;;;13.20;99.90;;;;;;4976795;28;20026;-87
2021/10/01 18:39:05;;;;;;;6.57;2.03;;;13.20;99.90;;;;;;4975223;28;20034;-88
2021/10/01 18:41:32;;;;;;;6.88;2.28;;;13.20;99.90;;;;;;4971754;28;20046;-87
2021/10/01 18:50:46;;;;;;;7.00;2.22;;;13.10;99.90;;;;;;4995897;28;20370;-86
2021/10/01 18:57:11;;;;;;;7.88;3.08;;;13.10;99.90;;;;;;4995658;28;20024;-87
2021/10/01 18:59:38;;;;;;;7.30;2.20;;;13.10;99.90;;;;;;4977582;28;20053;-87
2021/10/01 19:02:04;;;;;;;6.70;2.55;;;13.00;99.90;;;;;;4972119;28;20375;-87
2021/10/01 19:04:55;;;;;;;8.38;2.42;;;13.00;99.90;;;;;;4972196;28;20456;-86
2021/10/01 19:07:23;;;;;;;7.00;2.78;;;13.00;99.90;;;;;;4972437;28;20050;-86
2021/10/01 19:13:12;;;;;;;6.38;2.90;;;13.00;99.90;;;;;;4976026;28;20488;-86
2021/10/01 19:15:39;;;;;;;5.82;2.28;;;13.00;99.90;;;;;;4961884;28;20022;-88
2021/10/01 19:18:08;;;;;;;9.30;3.22;;;13.00;99.90;;;;;;4991566;28;20058;-88
2021/10/01 19:21:14;;;;;;;6.22;2.45;;;13.00;99.90;;;;;;4977366;28;20035;-87
2021/10/01 19:39:47;;;;;;;9.55;3.00;;;12.90;99.90;;;;;;4995266;28;20415;-86
2021/10/01 19:42:15;;;;;;;5.22;2.47;;;12.90;99.90;;;;;;4958823;28;20070;-86
2021/10/01 19:45:12;;;;;;;4.88;2.58;;;12.90;99.90;;;;;;4958714;28;20034;-86
2021/10/01 20:01:17;;;;;;;5.32;2.90;;;12.90;99.90;;;;;;4978862;28;20443;-87
2021/10/01 20:03:43;;;;;;;5.72;2.55;;;13.00;99.90;;;;;;4949272;29;20031;-86
2021/10/01 20:06:09;;;;;;;9.30;2.90;;;12.90;99.90;;;;;;4961695;28;20023;-87
2021/10/01 20:08:36;;;;;;;4.88;2.80;;;12.90;99.90;;;;;;4961218;28;20037;-86
2021/10/01 20:11:04;;;;;;;6.10;2.83;;;12.90;99.90;;;;;;4961642;28;20018;-86
2021/10/01 20:13:54;;;;;;;5.03;2.47;;;12.90;99.90;;;;;;4978085;28;20058;-86
2021/10/01 20:16:24;;;;;;;8.15;3.17;;;13.00;99.90;;;;;;4961647;28;20030;-87
2021/10/01 20:22:06;;;;;;;4.75;2.80;;;13.00;99.90;;;;;;4967733;28;20066;-86
2021/10/01 20:51:19;;;;;;;6.60;2.63;;;12.90;99.90;;;;;;4978232;28;20077;-86
2021/10/01 20:53:46;;;;;;;6.05;2.75;;;12.90;99.90;;;;;;4973613;28;20042;-87
2021/10/01 21:38:27;;;;;;;8.50;3.50;;;13.10;99.90;;;;;;4962678;28;20723;-87
2021/10/01 21:49:09;;;;;;;4.20;2.70;;;13.20;99.90;;;;;;4973414;28;20505;-88
2021/10/01 21:51:45;;;;;;;4.55;2.80;;;13.20;99.90;;;;;;4939658;28;20027;-87
2021/10/01 21:54:15;;;;;;;7.07;3.17;;;13.30;99.90;;;;;;4923969;28;20031;-87
2021/10/01 21:56:41;;;;;;;3.75;2.75;;;13.20;99.90;;;;;;4945967;29;20023;-87
2021/10/01 21:59:18;;;;;;;5.47;3.20;;;13.30;99.90;;;;;;4937257;29;20433;-88
2021/10/01 22:01:56;;;;;;;6.30;3.83;;;13.20;99.90;;;;;;4948871;28;20030;-88
2021/10/01 22:15:31;;;;;;;7.15;3.67;;;13.30;99.90;;;;;;4959705;28;20032;-86
2021/10/01 22:20:39;;;;;;;6.80;3.17;;;13.40;99.90;;;;;;4961211;28;20066;-87
2021/10/01 22:23:10;;;;;;;6.45;4.20;;;13.40;99.90;;;;;;4952628;28;20073;-87
2021/10/01 22:25:36;;;;;;;6.28;3.22;;;13.40;99.90;;;;;;4938983;28;20022;-87
2021/10/01 22:28:04;;;;;;;6.97;3.85;;;13.40;99.90;;;;;;4962952;28;20368;-88
2021/10/01 22:30:31;;;;;;;6.30;4.00;;;13.40;99.90;;;;;;4963579;28;20427;-88
2021/10/01 22:32:59;;;;;;;6.90;3.95;;;13.40;99.90;;;;;;4958183;28;20026;-87
2021/10/01 22:35:26;;;;;;;5.05;3.72;;;13.40;99.90;;;;;;4974342;28;20027;-87
2021/10/01 22:37:54;;;;;;;5.70;3.78;;;13.40;99.90;;;;;;4933941;29;20027;-87
2021/10/01 22:40:23;;;;;;;6.05;3.70;;;13.40;99.90;;;;;;4962157;28;20261;-88
2021/10/01 22:43:01;;;;;;;7.40;3.88;;;13.40;99.90;;;;;;4949703;28;20487;-89
2021/10/01 22:45:29;;;;;;;5.57;3.80;;;13.50;99.90;;;;;;4969882;28;20360;-88
2021/10/01 22:47:57;;;;;;;5.07;3.72;;;13.50;99.90;;;;;;4951472;29;20035;-87
2021/10/01 22:50:27;;;;;;;6.85;4.50;;;13.50;99.90;;;;;;4962575;28;20030;-88
2021/10/01 22:52:54;;;;;;;6.55;4.38;;;13.50;99.90;;;;;;4958411;28;20030;-87
2021/10/01 22:55:21;;;;;;;6.75;4.97;;;13.50;99.90;;;;;;4971727;28;20024;-87
2021/10/01 22:57:52;;;;;;;6.50;4.57;;;13.50;99.90;;;;;;4948546;28;20419;-87
2021/10/01 23:00:27;;;;;;;8.35;4.80;;;13.50;99.90;;;;;;4944270;29;20024;-87
2021/10/01 23:02:53;;;;;;;7.82;4.97;;;13.50;99.90;;;;;;4939269;29;20372;-87
2021/10/01 23:05:25;;;;;;;6.47;4.97;;;13.50;99.90;;;;;;4939475;29;20019;-87
2021/10/01 23:07:55;;;;;;;5.47;4.53;;;13.50;99.90;;;;;;4939459;29;20166;-87
2021/10/01 23:10:31;;;;;;;7.13;5.30;;;13.50;99.90;;;;;;4939441;29;20451;-87
2021/10/01 23:46:01;;;;;;;7.25;5.28;;;13.60;99.90;;;;;;4961478;28;20074;-86
